sensor_id;sensor_type;location;lat;lon;timestamp;temperature;humidity
63260;DHT22;49390;51.380;0.098;2023-04-15T00:02:27;8.00;99.90
63260;DHT22;49390;51.380;0.098;2023-04-15T00:04:55;7.90;99.90
63260;DHT22;49390;51.380;0.098;2023-04-15T00:07:23;7.80;99.90
63260;DHT22;49390;51.380;0.098;2023-04-15T00:09:51;7.80;99.90
63260;DHT22;49390;51.380;0.098;2023-04-15T00:12:24;7.70;99.90
63260;DHT22;49390;51.380;0.098;2023-04-15T00:14:52;7.70;99.90
63260;DHT22;49390;51.380;0.098;2023-04-15T00:17:20;7.70;99.90
63260;DHT22;49390;51.380;0.098;2023-04-15T00:19:48;7.70;99.90
63260;DHT22;49390;51.380;0.098;2023-04-15T00:22:16;7.70;99.90
63260;DHT22;49390;51.380;0.098;2023-04-15T00:24:47;7.70;99.90
63260;DHT22;49390;51.380;0.098;2023-04-15T00:27:15;7.70;99.90
63260;DHT22;49390;51.380;0.098;2023-04-15T00:29:46;7.70;99.90
63260;DHT22;49390;51.380;0.098;2023-04-15T00:32:15;7.70;99.90
63260;DHT22;49390;51.380;0.098;2023-04-15T00:34:45;7.80;99.90
63260;DHT22;49390;51.380;0.098;2023-04-15T00:37:14;7.80;99.90
63260;DHT22;49390;51.380;0.098;2023-04-15T00:39:41;7.80;99.90
63260;DHT22;49390;51.380;0.098;2023-04-15T00:42:12;7.80;99.90
63260;DHT22;49390;51.380;0.098;2023-04-15T00:44:40;7.80;99.90
63260;DHT22;49390;51.380;0.098;2023-04-15T00:47:10;7.90;99.90
63260;DHT22;49390;51.380;0.098;2023-04-15T00:49:38;7.80;99.90
63260;DHT22;49390;51.380;0.098;2023-04-15T00:52:07;7.80;99.90
63260;DHT22;49390;51.380;0.098;2023-04-15T00:54:35;7.80;99.90
63260;DHT22;49390;51.380;0.098;2023-04-15T00:57:05;7.80;99.90
63260;DHT22;49390;51.380;0.098;2023-04-15T00:59:35;7.80;99.90
63260;DHT22;49390;51.380;0.098;2023-04-15T01:02:04;7.90;99.90
63260;DHT22;49390;51.380;0.098;2023-04-15T01:04:35;7.90;99.90
63260;DHT22;49390;51.380;0.098;2023-04-15T01:07:04;7.80;99.90
63260;DHT22;49390;51.380;0.098;2023-04-15T01:09:32;7.90;99.90
63260;DHT22;49390;51.380;0.098;2023-04-15T01:12:03;7.90;99.90
63260;DHT22;49390;51.380;0.098;2023-04-15T01:14:32;7.90;99.90
63260;DHT22;49390;51.380;0.098;2023-04-15T01:17:01;7.90;99.90
63260;DHT22;49390;51.380;0.098;2023-04-15T01:19:29;7.90;99.90
63260;DHT22;49390;51.380;0.098;2023-04-15T01:21:59;7.90;99.90
63260;DHT22;49390;51.380;0.098;2023-04-15T01:24:31;7.90;99.90
63260;DHT22;49390;51.380;0.098;2023-04-15T01:27:01;7.90;99.90
63260;DHT22;49390;51.380;0.098;2023-04-15T01:29:30;8.00;99.90
63260;DHT22;49390;51.380;0.098;2023-04-15T01:31:59;7.90;99.90
63260;DHT22;49390;51.380;0.098;2023-04-15T01:34:46;8.00;99.90
63260;DHT22;49390;51.380;0.098;2023-04-15T01:37:35;8.00;99.90
63260;DHT22;49390;51.380;0.098;2023-04-15T01:40:06;8.00;99.90
63260;DHT22;49390;51.380;0.098;2023-04-15T01:42:37;7.90;99.90
63260;DHT22;49390;51.380;0.098;2023-04-15T01:45:07;7.90;99.90
63260;DHT22;49390;51.380;0.098;2023-04-15T01:47:39;7.90;99.90
63260;DHT22;49390;51.380;0.098;2023-04-15T01:50:10;7.90;99.90
63260;DHT22;49390;51.380;0.098;2023-04-15T01:52:40;7.90;99.90
63260;DHT22;49390;51.380;0.098;2023-04-15T01:55:10;7.90;99.90
63260;DHT22;49390;51.380;0.098;2023-04-15T01:57:39;7.90;99.90
63260;DHT22;49390;51.380;0.098;2023-04-15T02:00:09;7.90;99.90
63260;DHT22;49390;51.380;0.098;2023-04-15T02:02:43;7.90;99.90
63260;DHT22;49390;51.380;0.098;2023-04-15T02:05:13;7.80;99.90
63260;DHT22;49390;51.380;0.098;2023-04-15T02:07:42;7.80;99.90
63260;DHT22;49390;51.380;0.098;2023-04-15T02:10:11;7.80;99.90
63260;DHT22;49390;51.380;0.098;2023-04-15T02:12:45;7.90;99.90
63260;DHT22;49390;51.380;0.098;2023-04-15T02:15:15;7.90;99.90
63260;DHT22;49390;51.380;0.098;2023-04-15T02:17:44;7.90;99.90
63260;DHT22;49390;51.380;0.098;2023-04-15T02:20:19;7.90;99.90
63260;DHT22;49390;51.380;0.098;2023-04-15T02:22:49;7.80;99.90
63260;DHT22;49390;51.380;0.098;2023-04-15T02:25:19;7.80;99.90
63260;DHT22;49390;51.380;0.098;2023-04-15T02:27:52;7.80;99.90
63260;DHT22;49390;51.380;0.098;2023-04-15T02:30:21;7.80;99.90
63260;DHT22;49390;51.380;0.098;2023-04-15T02:32:52;7.80;99.90
63260;DHT22;49390;51.380;0.098;2023-04-15T02:35:21;7.70;99.90
63260;DHT22;49390;51.380;0.098;2023-04-15T02:37:51;7.70;99.90
63260;DHT22;49390;51.380;0.098;2023-04-15T02:40:20;7.70;99.90
63260;DHT22;49390;51.380;0.098;2023-04-15T02:42:50;7.70;99.90
63260;DHT22;49390;51.380;0.098;2023-04-15T02:45:19;7.70;99.90
63260;DHT22;49390;51.380;0.098;2023-04-15T02:47:52;7.70;99.90
63260;DHT22;49390;51.380;0.098;2023-04-15T02:50:22;7.70;99.90
63260;DHT22;49390;51.380;0.098;2023-04-15T02:52:52;7.60;99.90
63260;DHT22;49390;51.380;0.098;2023-04-15T02:55:21;7.60;99.90
63260;DHT22;49390;51.380;0.098;2023-04-15T02:57:51;7.60;99.90
63260;DHT22;49390;51.380;0.098;2023-04-15T03:00:23;7.60;99.90
63260;DHT22;49390;51.380;0.098;2023-04-15T03:02:58;7.60;99.90
63260;DHT22;49390;51.380;0.098;2023-04-15T03:05:27;7.60;99.90
63260;DHT22;49390;51.380;0.098;2023-04-15T03:08:01;7.60;99.90
63260;DHT22;49390;51.380;0.098;2023-04-15T03:10:31;7.60;99.90
63260;DHT22;49390;51.380;0.098;2023-04-15T03:13:03;7.60;99.90
63260;DHT22;49390;51.380;0.098;2023-04-15T03:15:32;7.50;99.90
63260;DHT22;49390;51.380;0.098;2023-04-15T03:18:02;7.60;99.90
63260;DHT22;49390;51.380;0.098;2023-04-15T03:20:32;7.60;99.90
63260;DHT22;49390;51.380;0.098;2023-04-15T03:23:01;7.50;99.90
63260;DHT22;49390;51.380;0.098;2023-04-15T03:25:30;7.50;99.90
63260;DHT22;49390;51.380;0.098;2023-04-15T03:28:04;7.50;99.90
63260;DHT22;49390;51.380;0.098;2023-04-15T03:30:34;7.50;99.90
63260;DHT22;49390;51.380;0.098;2023-04-15T03:33:04;7.50;99.90
63260;DHT22;49390;51.380;0.098;2023-04-15T03:35:33;7.50;99.90
63260;DHT22;49390;51.380;0.098;2023-04-15T03:38:05;7.50;99.90
63260;DHT22;49390;51.380;0.098;2023-04-15T03:40:34;7.50;99.90
63260;DHT22;49390;51.380;0.098;2023-04-15T03:43:06;7.50;99.90
63260;DHT22;49390;51.380;0.098;2023-04-15T03:45:35;7.50;99.90
63260;DHT22;49390;51.380;0.098;2023-04-15T03:48:06;7.50;99.90
63260;DHT22;49390;51.380;0.098;2023-04-15T03:50:45;7.50;99.90
63260;DHT22;49390;51.380;0.098;2023-04-15T03:53:15;7.50;99.90
63260;DHT22;49390;51.380;0.098;2023-04-15T03:55:44;7.40;99.90
63260;DHT22;49390;51.380;0.098;2023-04-15T03:58:14;7.50;99.90
63260;DHT22;49390;51.380;0.098;2023-04-15T04:00:43;7.50;99.90
63260;DHT22;49390;51.380;0.098;2023-04-15T04:03:12;7.50;99.90
63260;DHT22;49390;51.380;0.098;2023-04-15T04:05:42;7.50;99.90
63260;DHT22;49390;51.380;0.098;2023-04-15T04:08:12;7.50;99.90
63260;DHT22;49390;51.380;0.098;2023-04-15T04:10:42;7.50;99.90
63260;DHT22;49390;51.380;0.098;2023-04-15T04:13:11;7.50;99.90
63260;DHT22;49390;51.380;0.098;2023-04-15T04:15:40;7.50;99.90
63260;DHT22;49390;51.380;0.098;2023-04-15T04:18:10;7.50;99.90
63260;DHT22;49390;51.380;0.098;2023-04-15T04:20:39;7.50;99.90
63260;DHT22;49390;51.380;0.098;2023-04-15T04:23:12;7.50;99.90
63260;DHT22;49390;51.380;0.098;2023-04-15T04:25:41;7.50;99.90
63260;DHT22;49390;51.380;0.098;2023-04-15T04:28:11;7.50;99.90
63260;DHT22;49390;51.380;0.098;2023-04-15T04:30:40;7.50;99.90
63260;DHT22;49390;51.380;0.098;2023-04-15T04:33:10;7.50;99.90
63260;DHT22;49390;51.380;0.098;2023-04-15T04:35:39;7.50;99.90
63260;DHT22;49390;51.380;0.098;2023-04-15T04:38:08;7.50;99.90
63260;DHT22;49390;51.380;0.098;2023-04-15T04:40:38;7.50;99.90
63260;DHT22;49390;51.380;0.098;2023-04-15T04:43:08;7.50;99.90
63260;DHT22;49390;51.380;0.098;2023-04-15T04:45:37;7.50;99.90
63260;DHT22;49390;51.380;0.098;2023-04-15T04:48:07;7.50;99.90
63260;DHT22;49390;51.380;0.098;2023-04-15T04:50:38;7.50;99.90
63260;DHT22;49390;51.380;0.098;2023-04-15T04:53:07;7.50;99.90
63260;DHT22;49390;51.380;0.098;2023-04-15T04:55:36;7.50;99.90
63260;DHT22;49390;51.380;0.098;2023-04-15T04:58:06;7.40;99.90
63260;DHT22;49390;51.380;0.098;2023-04-15T05:00:39;7.50;99.90
63260;DHT22;49390;51.380;0.098;2023-04-15T05:03:14;7.50;99.90
63260;DHT22;49390;51.380;0.098;2023-04-15T05:05:43;7.50;99.90
63260;DHT22;49390;51.380;0.098;2023-04-15T05:08:13;7.50;99.90
63260;DHT22;49390;51.380;0.098;2023-04-15T05:10:42;7.50;99.90
63260;DHT22;49390;51.380;0.098;2023-04-15T05:13:11;7.50;99.90
63260;DHT22;49390;51.380;0.098;2023-04-15T05:15:41;7.50;99.90
63260;DHT22;49390;51.380;0.098;2023-04-15T05:18:11;7.50;99.90
63260;DHT22;49390;51.380;0.098;2023-04-15T05:20:40;7.50;99.90
63260;DHT22;49390;51.380;0.098;2023-04-15T05:23:10;7.50;99.90
63260;DHT22;49390;51.380;0.098;2023-04-15T05:25:39;7.50;99.90
63260;DHT22;49390;51.380;0.098;2023-04-15T05:28:08;7.50;99.90
63260;DHT22;49390;51.380;0.098;2023-04-15T05:30:40;7.50;99.90
63260;DHT22;49390;51.380;0.098;2023-04-15T05:33:10;7.50;99.90
63260;DHT22;49390;51.380;0.098;2023-04-15T05:35:39;7.50;99.90
63260;DHT22;49390;51.380;0.098;2023-04-15T05:38:09;7.50;99.90
63260;DHT22;49390;51.380;0.098;2023-04-15T05:40:38;7.60;99.90
63260;DHT22;49390;51.380;0.098;2023-04-15T05:43:09;7.50;99.90
63260;DHT22;49390;51.380;0.098;2023-04-15T05:45:39;7.50;99.90
63260;DHT22;49390;51.380;0.098;2023-04-15T05:48:08;7.50;99.90
63260;DHT22;49390;51.380;0.098;2023-04-15T05:50:40;7.50;99.90
63260;DHT22;49390;51.380;0.098;2023-04-15T05:53:10;7.60;99.90
63260;DHT22;49390;51.380;0.098;2023-04-15T05:55:39;7.60;99.90
63260;DHT22;49390;51.380;0.098;2023-04-15T05:58:11;7.60;99.90
63260;DHT22;49390;51.380;0.098;2023-04-15T06:00:40;7.60;99.90
63260;DHT22;49390;51.380;0.098;2023-04-15T06:03:10;7.70;99.90
63260;DHT22;49390;51.380;0.098;2023-04-15T06:05:40;7.70;99.90
63260;DHT22;49390;51.380;0.098;2023-04-15T06:08:10;7.70;99.90
63260;DHT22;49390;51.380;0.098;2023-04-15T06:10:39;7.70;99.90
63260;DHT22;49390;51.380;0.098;2023-04-15T06:13:08;7.80;99.90
63260;DHT22;49390;51.380;0.098;2023-04-15T06:15:38;7.80;99.90
63260;DHT22;49390;51.380;0.098;2023-04-15T06:18:10;7.80;99.90
63260;DHT22;49390;51.380;0.098;2023-04-15T06:20:39;7.80;99.90
63260;DHT22;49390;51.380;0.098;2023-04-15T06:23:09;7.80;99.90
63260;DHT22;49390;51.380;0.098;2023-04-15T06:25:39;7.80;99.90
63260;DHT22;49390;51.380;0.098;2023-04-15T06:28:08;7.80;99.90
63260;DHT22;49390;51.380;0.098;2023-04-15T06:30:37;7.80;99.90
63260;DHT22;49390;51.380;0.098;2023-04-15T06:33:07;7.80;99.90
63260;DHT22;49390;51.380;0.098;2023-04-15T06:35:36;7.90;99.90
63260;DHT22;49390;51.380;0.098;2023-04-15T06:38:06;7.90;99.90
63260;DHT22;49390;51.380;0.098;2023-04-15T06:40:35;7.90;99.90
63260;DHT22;49390;51.380;0.098;2023-04-15T06:43:05;7.90;99.90
63260;DHT22;49390;51.380;0.098;2023-04-15T06:45:34;7.90;99.90
63260;DHT22;49390;51.380;0.098;2023-04-15T06:48:06;8.00;99.90
63260;DHT22;49390;51.380;0.098;2023-04-15T06:50:35;8.00;99.90
63260;DHT22;49390;51.380;0.098;2023-04-15T06:53:05;8.00;99.90
63260;DHT22;49390;51.380;0.098;2023-04-15T06:55:34;8.00;99.90
63260;DHT22;49390;51.380;0.098;2023-04-15T06:58:06;8.10;99.90
63260;DHT22;49390;51.380;0.098;2023-04-15T07:00:35;8.10;99.90
63260;DHT22;49390;51.380;0.098;2023-04-15T07:03:07;8.10;99.90
63260;DHT22;49390;51.380;0.098;2023-04-15T07:05:39;8.20;99.90
63260;DHT22;49390;51.380;0.098;2023-04-15T07:08:09;8.20;99.90
63260;DHT22;49390;51.380;0.098;2023-04-15T07:10:40;8.20;99.90
63260;DHT22;49390;51.380;0.098;2023-04-15T07:13:10;8.20;99.90
63260;DHT22;49390;51.380;0.098;2023-04-15T07:15:42;8.20;99.90
63260;DHT22;49390;51.380;0.098;2023-04-15T07:18:11;8.20;99.90
63260;DHT22;49390;51.380;0.098;2023-04-15T07:20:42;8.20;99.90
63260;DHT22;49390;51.380;0.098;2023-04-15T07:23:11;8.20;99.90
63260;DHT22;49390;51.380;0.098;2023-04-15T07:25:40;8.20;99.90
63260;DHT22;49390;51.380;0.098;2023-04-15T07:28:12;8.20;99.90
63260;DHT22;49390;51.380;0.098;2023-04-15T07:30:41;8.20;99.90
63260;DHT22;49390;51.380;0.098;2023-04-15T07:33:11;8.30;99.90
63260;DHT22;49390;51.380;0.098;2023-04-15T07:35:40;8.30;99.90
63260;DHT22;49390;51.380;0.098;2023-04-15T07:38:15;8.40;99.90
63260;DHT22;49390;51.380;0.098;2023-04-15T07:40:45;8.40;99.90
63260;DHT22;49390;51.380;0.098;2023-04-15T07:43:15;8.40;99.90
63260;DHT22;49390;51.380;0.098;2023-04-15T07:45:50;8.40;99.90
63260;DHT22;49390;51.380;0.098;2023-04-15T07:48:20;8.40;99.90
63260;DHT22;49390;51.380;0.098;2023-04-15T07:50:53;8.40;99.90
63260;DHT22;49390;51.380;0.098;2023-04-15T07:53:23;8.40;99.90
63260;DHT22;49390;51.380;0.098;2023-04-15T07:55:52;8.40;99.90
63260;DHT22;49390;51.380;0.098;2023-04-15T07:58:21;8.40;99.90
63260;DHT22;49390;51.380;0.098;2023-04-15T08:00:51;8.40;99.90
63260;DHT22;49390;51.380;0.098;2023-04-15T08:03:21;8.40;99.90
63260;DHT22;49390;51.380;0.098;2023-04-15T08:05:50;8.50;99.90
63260;DHT22;49390;51.380;0.098;2023-04-15T08:08:20;8.40;99.90
63260;DHT22;49390;51.380;0.098;2023-04-15T08:10:50;8.50;99.90
63260;DHT22;49390;51.380;0.098;2023-04-15T08:13:20;8.50;99.90
63260;DHT22;49390;51.380;0.098;2023-04-15T08:16:13;8.50;99.90
63260;DHT22;49390;51.380;0.098;2023-04-15T08:18:42;8.50;99.90
63260;DHT22;49390;51.380;0.098;2023-04-15T08:21:11;8.60;99.90
63260;DHT22;49390;51.380;0.098;2023-04-15T08:23:42;8.60;99.90
63260;DHT22;49390;51.380;0.098;2023-04-15T08:26:11;8.60;99.90
63260;DHT22;49390;51.380;0.098;2023-04-15T08:28:44;8.70;99.90
63260;DHT22;49390;51.380;0.098;2023-04-15T08:31:14;8.80;99.90
63260;DHT22;49390;51.380;0.098;2023-04-15T08:33:45;8.90;99.90
63260;DHT22;49390;51.380;0.098;2023-04-15T08:36:14;8.90;99.90
63260;DHT22;49390;51.380;0.098;2023-04-15T08:38:44;9.00;99.90
63260;DHT22;49390;51.380;0.098;2023-04-15T08:41:24;9.10;99.90
63260;DHT22;49390;51.380;0.098;2023-04-15T08:44:00;9.20;99.90
63260;DHT22;49390;51.380;0.098;2023-04-15T08:46:31;9.20;99.90
63260;DHT22;49390;51.380;0.098;2023-04-15T08:49:09;9.30;99.90
63260;DHT22;49390;51.380;0.098;2023-04-15T08:51:39;9.40;99.90
63260;DHT22;49390;51.380;0.098;2023-04-15T08:54:09;9.50;99.90
63260;DHT22;49390;51.380;0.098;2023-04-15T08:56:38;9.60;99.90
63260;DHT22;49390;51.380;0.098;2023-04-15T08:59:08;9.80;99.90
63260;DHT22;49390;51.380;0.098;2023-04-15T09:01:39;9.90;99.90
63260;DHT22;49390;51.380;0.098;2023-04-15T09:04:10;9.90;99.90
63260;DHT22;49390;51.380;0.098;2023-04-15T09:06:42;10.00;99.90
63260;DHT22;49390;51.380;0.098;2023-04-15T09:09:11;10.10;99.90
63260;DHT22;49390;51.380;0.098;2023-04-15T09:11:42;10.10;99.90
63260;DHT22;49390;51.380;0.098;2023-04-15T09:14:11;10.20;99.90
63260;DHT22;49390;51.380;0.098;2023-04-15T09:17:02;10.30;99.90
63260;DHT22;49390;51.380;0.098;2023-04-15T09:19:32;10.40;99.90
63260;DHT22;49390;51.380;0.098;2023-04-15T09:22:02;10.50;99.90
63260;DHT22;49390;51.380;0.098;2023-04-15T09:24:38;10.50;99.90
63260;DHT22;49390;51.380;0.098;2023-04-15T09:27:07;10.50;99.90
63260;DHT22;49390;51.380;0.098;2023-04-15T09:29:37;10.60;99.90
63260;DHT22;49390;51.380;0.098;2023-04-15T09:32:14;10.70;99.90
63260;DHT22;49390;51.380;0.098;2023-04-15T09:34:46;10.70;99.90
63260;DHT22;49390;51.380;0.098;2023-04-15T09:37:16;10.70;99.90
63260;DHT22;49390;51.380;0.098;2023-04-15T09:40:00;10.70;99.90
63260;DHT22;49390;51.380;0.098;2023-04-15T09:42:29;10.70;99.90
63260;DHT22;49390;51.380;0.098;2023-04-15T09:45:11;10.70;99.90
63260;DHT22;49390;51.380;0.098;2023-04-15T09:47:40;10.80;99.90
63260;DHT22;49390;51.380;0.098;2023-04-15T09:50:10;11.00;99.90
63260;DHT22;49390;51.380;0.098;2023-04-15T09:52:43;11.10;99.90
63260;DHT22;49390;51.380;0.098;2023-04-15T09:55:17;11.20;99.90
63260;DHT22;49390;51.380;0.098;2023-04-15T09:57:46;11.30;99.90
63260;DHT22;49390;51.380;0.098;2023-04-15T10:00:16;11.40;99.90
63260;DHT22;49390;51.380;0.098;2023-04-15T10:02:46;11.60;99.90
63260;DHT22;49390;51.380;0.098;2023-04-15T10:05:17;11.70;99.90
63260;DHT22;49390;51.380;0.098;2023-04-15T10:07:46;11.70;99.90
63260;DHT22;49390;51.380;0.098;2023-04-15T10:10:17;11.70;99.90
63260;DHT22;49390;51.380;0.098;2023-04-15T10:12:47;11.60;99.90
63260;DHT22;49390;51.380;0.098;2023-04-15T10:15:17;11.60;99.90
63260;DHT22;49390;51.380;0.098;2023-04-15T10:17:49;11.50;99.90
63260;DHT22;49390;51.380;0.098;2023-04-15T10:20:19;11.50;99.90
63260;DHT22;49390;51.380;0.098;2023-04-15T10:22:51;11.40;99.90
63260;DHT22;49390;51.380;0.098;2023-04-15T10:25:21;11.40;99.90
63260;DHT22;49390;51.380;0.098;2023-04-15T10:27:55;11.40;99.90
63260;DHT22;49390;51.380;0.098;2023-04-15T10:30:25;11.40;99.90
63260;DHT22;49390;51.380;0.098;2023-04-15T10:32:55;11.30;99.90
63260;DHT22;49390;51.380;0.098;2023-04-15T10:35:25;11.30;99.90
63260;DHT22;49390;51.380;0.098;2023-04-15T10:37:55;11.20;99.90
63260;DHT22;49390;51.380;0.098;2023-04-15T10:40:27;11.20;99.90
63260;DHT22;49390;51.380;0.098;2023-04-15T10:42:59;11.20;99.90
63260;DHT22;49390;51.380;0.098;2023-04-15T10:45:35;11.10;99.90
63260;DHT22;49390;51.380;0.098;2023-04-15T10:48:06;11.10;99.90
63260;DHT22;49390;51.380;0.098;2023-04-15T10:50:37;11.10;99.90
63260;DHT22;49390;51.380;0.098;2023-04-15T10:53:09;11.30;99.90
63260;DHT22;49390;51.380;0.098;2023-04-15T10:55:39;11.30;99.90
63260;DHT22;49390;51.380;0.098;2023-04-15T10:58:09;11.40;99.90
63260;DHT22;49390;51.380;0.098;2023-04-15T11:00:38;11.60;99.90
63260;DHT22;49390;51.380;0.098;2023-04-15T11:03:08;11.70;99.90
63260;DHT22;49390;51.380;0.098;2023-04-15T11:08:11;11.80;99.90
63260;DHT22;49390;51.380;0.098;2023-04-15T11:15:45;12.10;99.90
63260;DHT22;49390;51.380;0.098;2023-04-15T11:18:26;12.20;99.90
63260;DHT22;49390;51.380;0.098;2023-04-15T11:21:06;12.40;99.90
63260;DHT22;49390;51.380;0.098;2023-04-15T11:23:40;12.60;99.90
63260;DHT22;49390;51.380;0.098;2023-04-15T11:26:12;12.80;99.90
63260;DHT22;49390;51.380;0.098;2023-04-15T11:28:43;12.90;99.90
63260;DHT22;49390;51.380;0.098;2023-04-15T11:31:16;13.00;99.90
63260;DHT22;49390;51.380;0.098;2023-04-15T11:36:27;13.40;99.90
63260;DHT22;49390;51.380;0.098;2023-04-15T11:38:58;13.70;99.90
63260;DHT22;49390;51.380;0.098;2023-04-15T11:41:28;13.80;99.90
63260;DHT22;49390;51.380;0.098;2023-04-15T11:44:02;14.00;99.90
63260;DHT22;49390;51.380;0.098;2023-04-15T11:46:44;14.10;99.90
63260;DHT22;49390;51.380;0.098;2023-04-15T11:49:27;14.00;99.90
63260;DHT22;49390;51.380;0.098;2023-04-15T11:51:56;13.90;99.90
63260;DHT22;49390;51.380;0.098;2023-04-15T11:54:27;13.90;99.90
63260;DHT22;49390;51.380;0.098;2023-04-15T11:56:55;13.80;99.90
63260;DHT22;49390;51.380;0.098;2023-04-15T11:59:26;13.80;99.90
63260;DHT22;49390;51.380;0.098;2023-04-15T12:02:12;13.80;99.90
63260;DHT22;49390;51.380;0.098;2023-04-15T12:04:41;13.80;99.90
63260;DHT22;49390;51.380;0.098;2023-04-15T12:07:10;13.90;99.90
63260;DHT22;49390;51.380;0.098;2023-04-15T12:09:40;14.00;99.90
63260;DHT22;49390;51.380;0.098;2023-04-15T12:12:09;14.00;99.90
63260;DHT22;49390;51.380;0.098;2023-04-15T12:14:39;14.10;99.90
63260;DHT22;49390;51.380;0.098;2023-04-15T12:17:09;14.10;99.90
63260;DHT22;49390;51.380;0.098;2023-04-15T12:19:41;14.10;99.90
63260;DHT22;49390;51.380;0.098;2023-04-15T12:22:14;14.10;99.90
63260;DHT22;49390;51.380;0.098;2023-04-15T12:24:43;14.00;99.90
63260;DHT22;49390;51.380;0.098;2023-04-15T12:27:16;13.90;99.90
63260;DHT22;49390;51.380;0.098;2023-04-15T12:29:46;13.70;99.90
63260;DHT22;49390;51.380;0.098;2023-04-15T12:32:15;13.70;99.90
63260;DHT22;49390;51.380;0.098;2023-04-15T12:34:49;13.80;99.90
63260;DHT22;49390;51.380;0.098;2023-04-15T12:37:18;14.00;99.90
63260;DHT22;49390;51.380;0.098;2023-04-15T12:39:48;14.20;99.90
63260;DHT22;49390;51.380;0.098;2023-04-15T12:42:17;14.50;99.90
63260;DHT22;49390;51.380;0.098;2023-04-15T12:44:45;14.80;99.90
63260;DHT22;49390;51.380;0.098;2023-04-15T12:47:14;15.10;99.90
63260;DHT22;49390;51.380;0.098;2023-04-15T12:49:42;15.20;99.90
63260;DHT22;49390;51.380;0.098;2023-04-15T12:52:10;15.20;99.90
63260;DHT22;49390;51.380;0.098;2023-04-15T12:54:38;15.20;99.90
63260;DHT22;49390;51.380;0.098;2023-04-15T12:57:07;15.10;99.90
63260;DHT22;49390;51.380;0.098;2023-04-15T12:59:35;15.10;99.90
63260;DHT22;49390;51.380;0.098;2023-04-15T13:02:03;15.20;99.90
63260;DHT22;49390;51.380;0.098;2023-04-15T13:04:32;15.40;99.90
63260;DHT22;49390;51.380;0.098;2023-04-15T13:07:01;15.70;99.90
63260;DHT22;49390;51.380;0.098;2023-04-15T13:09:31;15.80;99.70
63260;DHT22;49390;51.380;0.098;2023-04-15T13:12:00;15.90;93.50
63260;DHT22;49390;51.380;0.098;2023-04-15T13:14:28;15.70;92.10
63260;DHT22;49390;51.380;0.098;2023-04-15T13:16:56;15.50;93.10
63260;DHT22;49390;51.380;0.098;2023-04-15T13:19:24;15.40;94.50
63260;DHT22;49390;51.380;0.098;2023-04-15T13:21:53;15.30;96.20
63260;DHT22;49390;51.380;0.098;2023-04-15T13:24:21;15.20;96.50
63260;DHT22;49390;51.380;0.098;2023-04-15T13:26:49;15.10;95.80
63260;DHT22;49390;51.380;0.098;2023-04-15T13:29:17;15.10;97.40
63260;DHT22;49390;51.380;0.098;2023-04-15T13:31:48;15.00;97.40
63260;DHT22;49390;51.380;0.098;2023-04-15T13:34:16;15.10;96.40
63260;DHT22;49390;51.380;0.098;2023-04-15T13:36:46;15.30;95.80
63260;DHT22;49390;51.380;0.098;2023-04-15T13:39:16;15.40;94.90
63260;DHT22;49390;51.380;0.098;2023-04-15T13:41:44;15.60;93.20
63260;DHT22;49390;51.380;0.098;2023-04-15T13:44:14;15.80;90.20
63260;DHT22;49390;51.380;0.098;2023-04-15T13:46:43;15.80;88.40
63260;DHT22;49390;51.380;0.098;2023-04-15T13:49:18;15.90;88.60
63260;DHT22;49390;51.380;0.098;2023-04-15T13:51:47;16.10;87.80
63260;DHT22;49390;51.380;0.098;2023-04-15T13:54:17;16.20;80.30
63260;DHT22;49390;51.380;0.098;2023-04-15T13:56:45;16.20;78.90
63260;DHT22;49390;51.380;0.098;2023-04-15T13:59:15;16.10;79.40
63260;DHT22;49390;51.380;0.098;2023-04-15T14:01:43;16.00;80.50
63260;DHT22;49390;51.380;0.098;2023-04-15T14:04:12;15.90;80.60
63260;DHT22;49390;51.380;0.098;2023-04-15T14:06:40;15.70;81.80
63260;DHT22;49390;51.380;0.098;2023-04-15T14:09:09;15.60;82.90
63260;DHT22;49390;51.380;0.098;2023-04-15T14:11:38;15.40;84.30
63260;DHT22;49390;51.380;0.098;2023-04-15T14:14:05;15.30;86.20
63260;DHT22;49390;51.380;0.098;2023-04-15T14:16:34;15.20;88.00
63260;DHT22;49390;51.380;0.098;2023-04-15T14:19:02;15.30;89.20
63260;DHT22;49390;51.380;0.098;2023-04-15T14:21:31;15.40;88.70
63260;DHT22;49390;51.380;0.098;2023-04-15T14:23:59;15.60;87.60
63260;DHT22;49390;51.380;0.098;2023-04-15T14:26:30;15.70;86.10
63260;DHT22;49390;51.380;0.098;2023-04-15T14:28:58;15.90;84.10
63260;DHT22;49390;51.380;0.098;2023-04-15T14:31:26;16.00;82.20
63260;DHT22;49390;51.380;0.098;2023-04-15T14:33:54;16.10;81.00
63260;DHT22;49390;51.380;0.098;2023-04-15T14:36:22;16.20;79.90
63260;DHT22;49390;51.380;0.098;2023-04-15T14:38:50;16.40;79.70
63260;DHT22;49390;51.380;0.098;2023-04-15T14:41:18;16.50;79.00
63260;DHT22;49390;51.380;0.098;2023-04-15T14:43:46;16.70;78.10
63260;DHT22;49390;51.380;0.098;2023-04-15T14:46:15;16.90;77.00
63260;DHT22;49390;51.380;0.098;2023-04-15T14:48:43;17.00;74.90
63260;DHT22;49390;51.380;0.098;2023-04-15T14:51:11;17.20;73.90
63260;DHT22;49390;51.380;0.098;2023-04-15T14:53:39;17.30;73.50
63260;DHT22;49390;51.380;0.098;2023-04-15T14:56:07;17.40;73.30
63260;DHT22;49390;51.380;0.098;2023-04-15T14:58:35;17.50;72.50
63260;DHT22;49390;51.380;0.098;2023-04-15T15:01:04;17.60;69.90
63260;DHT22;49390;51.380;0.098;2023-04-15T15:03:32;17.60;69.30
63260;DHT22;49390;51.380;0.098;2023-04-15T15:06:01;17.60;69.00
63260;DHT22;49390;51.380;0.098;2023-04-15T15:08:28;17.60;69.30
63260;DHT22;49390;51.380;0.098;2023-04-15T15:10:57;17.60;69.80
63260;DHT22;49390;51.380;0.098;2023-04-15T15:13:25;17.60;69.10
63260;DHT22;49390;51.380;0.098;2023-04-15T15:15:53;17.50;69.20
63260;DHT22;49390;51.380;0.098;2023-04-15T15:18:21;17.40;69.30
63260;DHT22;49390;51.380;0.098;2023-04-15T15:20:49;17.40;68.40
63260;DHT22;49390;51.380;0.098;2023-04-15T15:23:17;17.30;67.80
63260;DHT22;49390;51.380;0.098;2023-04-15T15:25:46;17.20;68.20
63260;DHT22;49390;51.380;0.098;2023-04-15T15:28:16;17.00;68.20
63260;DHT22;49390;51.380;0.098;2023-04-15T15:30:44;16.80;69.20
63260;DHT22;49390;51.380;0.098;2023-04-15T15:33:12;16.60;69.80
63260;DHT22;49390;51.380;0.098;2023-04-15T15:35:41;16.50;70.70
63260;DHT22;49390;51.380;0.098;2023-04-15T15:38:10;16.40;70.90
63260;DHT22;49390;51.380;0.098;2023-04-15T15:40:39;16.30;71.30
63260;DHT22;49390;51.380;0.098;2023-04-15T15:43:07;16.30;71.80
63260;DHT22;49390;51.380;0.098;2023-04-15T15:45:35;16.50;69.40
63260;DHT22;49390;51.380;0.098;2023-04-15T15:48:04;16.50;68.60
63260;DHT22;49390;51.380;0.098;2023-04-15T15:52:55;16.40;65.30
63260;DHT22;49390;51.380;0.098;2023-04-15T15:55:25;16.40;65.50
63260;DHT22;49390;51.380;0.098;2023-04-15T15:57:53;16.40;66.00
63260;DHT22;49390;51.380;0.098;2023-04-15T16:00:22;16.40;64.20
63260;DHT22;49390;51.380;0.098;2023-04-15T16:02:52;16.40;64.00
63260;DHT22;49390;51.380;0.098;2023-04-15T16:05:34;16.30;64.30
63260;DHT22;49390;51.380;0.098;2023-04-15T16:08:02;16.10;66.10
63260;DHT22;49390;51.380;0.098;2023-04-15T16:10:30;15.90;67.80
63260;DHT22;49390;51.380;0.098;2023-04-15T16:12:58;16.00;69.00